AAL2930 KPHX-KLAX
Flight info
| Callsign | AAL2930 |
|---|---|
| Flight time | 1h 0m |
| Altitude | 38000 |
| Route | KEENS3 WLVRN ESTWD HLYWD1 |
| Aircraft | A319/M-SDE3FGHIRWY/LB1 |
Departure
| Time | 2026-04-26 01:20 |
|---|---|
| Airport | Phoenix Sky Harbor International Airport (KPHX) |
Arrival
| Time | 2026-04-26 02:21 |
|---|---|
| Airport | Los Angeles International Airport (KLAX) |
| Time | Latitude | Longitude | Altitude | Speed | Heading |
|---|---|---|---|---|---|
| 2026-04-26 00:48 | 33.43729 | -112.00232 | 1124 ft | 0 kts | 90° |
| 2026-04-26 01:09 | 33.43729 | -112.00233 | 1124 ft | 0 kts | 90° |
| 2026-04-26 01:09 | 33.43729 | -112.00248 | 1116 ft | 3 kts | 90° |
| 2026-04-26 01:09 | 33.43729 | -112.00269 | 1124 ft | 3 kts | 105° |
| 2026-04-26 01:10 | 33.43738 | -112.00289 | 1117 ft | 3 kts | 145° |
| 2026-04-26 01:10 | 33.43755 | -112.00299 | 1123 ft | 3 kts | 173° |
| 2026-04-26 01:10 | 33.43766 | -112.00300 | 1110 ft | 1 kts | 180° |
| 2026-04-26 01:10 | 33.43768 | -112.00300 | 1109 ft | 0 kts | 180° |
| 2026-04-26 01:15 | 33.43758 | -112.00300 | 1117 ft | 3 kts | 180° |
| 2026-04-26 01:15 | 33.43722 | -112.00302 | 1122 ft | 6 kts | 198° |
| 2026-04-26 01:15 | 33.43703 | -112.00363 | 1121 ft | 9 kts | 240° |
| 2026-04-26 01:16 | 33.43633 | -112.00380 | 1122 ft | 12 kts | 180° |
| 2026-04-26 01:16 | 33.43541 | -112.00379 | 1121 ft | 14 kts | 180° |
| 2026-04-26 01:16 | 33.43436 | -112.00381 | 1122 ft | 16 kts | 181° |
| 2026-04-26 01:16 | 33.43319 | -112.00382 | 1120 ft | 18 kts | 180° |
| 2026-04-26 01:17 | 33.43224 | -112.00370 | 1123 ft | 12 kts | 137° |
| 2026-04-26 01:17 | 33.43214 | -112.00268 | 1125 ft | 13 kts | 90° |
| 2026-04-26 01:17 | 33.43213 | -112.00151 | 1119 ft | 15 kts | 90° |
| 2026-04-26 01:17 | 33.43213 | -112.00017 | 1121 ft | 17 kts | 90° |
| 2026-04-26 01:18 | 33.43214 | -111.99864 | 1124 ft | 19 kts | 89° |
| 2026-04-26 01:18 | 33.43214 | -111.99698 | 1119 ft | 21 kts | 91° |
| 2026-04-26 01:18 | 33.43214 | -111.99521 | 1124 ft | 21 kts | 90° |
| 2026-04-26 01:18 | 33.43212 | -111.99360 | 1124 ft | 16 kts | 101° |
| 2026-04-26 01:19 | 33.43144 | -111.99339 | 1123 ft | 10 kts | 189° |
| 2026-04-26 01:19 | 33.43105 | -111.99403 | 1123 ft | 11 kts | 266° |
| 2026-04-26 01:19 | 33.43104 | -111.99463 | 1123 ft | 8 kts | 269° |
| 2026-04-26 01:19 | 33.43104 | -111.99580 | 1124 ft | 32 kts | 270° |
| 2026-04-26 01:20 | 33.43106 | -112.00166 | 1125 ft | 105 kts | 270° |
| 2026-04-26 01:20 | 33.43111 | -112.01289 | 1257 ft | 148 kts | 271° |
| 2026-04-26 01:20 | 33.43069 | -112.02491 | 1971 ft | 144 kts | 263° |
| 2026-04-26 01:20 | 33.43005 | -112.03672 | 2628 ft | 143 kts | 264° |
| 2026-04-26 01:21 | 33.42938 | -112.04922 | 3103 ft | 161 kts | 265° |
| 2026-04-26 01:21 | 33.42878 | -112.06337 | 3535 ft | 180 kts | 265° |
| 2026-04-26 01:21 | 33.42746 | -112.07906 | 3950 ft | 201 kts | 254° |
| 2026-04-26 01:21 | 33.42205 | -112.09581 | 4373 ft | 227 kts | 248° |
| 2026-04-26 01:22 | 33.41600 | -112.11432 | 4982 ft | 249 kts | 248° |
| 2026-04-26 01:22 | 33.40967 | -112.13430 | 5845 ft | 260 kts | 248° |
| 2026-04-26 01:22 | 33.40344 | -112.15464 | 6971 ft | 260 kts | 248° |
| 2026-04-26 01:22 | 33.39740 | -112.17501 | 8098 ft | 261 kts | 249° |
| 2026-04-26 01:23 | 33.39262 | -112.19617 | 9098 ft | 267 kts | 260° |
| 2026-04-26 01:23 | 33.39312 | -112.21858 | 10089 ft | 274 kts | 276° |
| 2026-04-26 01:23 | 33.39685 | -112.24172 | 10617 ft | 296 kts | 277° |
| 2026-04-26 01:23 | 33.40086 | -112.26683 | 11040 ft | 318 kts | 277° |
| 2026-04-26 01:24 | 33.40491 | -112.29321 | 11806 ft | 325 kts | 277° |
| 2026-04-26 01:24 | 33.40889 | -112.31996 | 12749 ft | 327 kts | 277° |
| 2026-04-26 01:24 | 33.41286 | -112.34686 | 13687 ft | 329 kts | 276° |
| 2026-04-26 01:24 | 33.41685 | -112.37394 | 14504 ft | 332 kts | 276° |
| 2026-04-26 01:25 | 33.42085 | -112.40130 | 15305 ft | 335 kts | 276° |
| 2026-04-26 01:25 | 33.42493 | -112.42921 | 16110 ft | 338 kts | 276° |
| 2026-04-26 01:25 | 33.42895 | -112.45669 | 16891 ft | 341 kts | 276° |
| 2026-04-26 01:25 | 33.43308 | -112.48473 | 17679 ft | 344 kts | 276° |
| 2026-04-26 01:26 | 33.43726 | -112.51307 | 18406 ft | 347 kts | 276° |
| 2026-04-26 01:26 | 33.44145 | -112.54168 | 19094 ft | 350 kts | 276° |
| 2026-04-26 01:26 | 33.44565 | -112.57042 | 19794 ft | 352 kts | 275° |
| 2026-04-26 01:26 | 33.44961 | -112.59946 | 20488 ft | 353 kts | 272° |
| 2026-04-26 01:27 | 33.45055 | -112.62878 | 21175 ft | 354 kts | 267° |
| 2026-04-26 01:27 | 33.45094 | -112.65839 | 21855 ft | 356 kts | 267° |
| 2026-04-26 01:27 | 33.45131 | -112.68818 | 22512 ft | 359 kts | 267° |
| 2026-04-26 01:27 | 33.45166 | -112.71819 | 23153 ft | 362 kts | 267° |
| 2026-04-26 01:28 | 33.45202 | -112.74838 | 23713 ft | 364 kts | 267° |
| 2026-04-26 01:28 | 33.45256 | -112.77881 | 24241 ft | 367 kts | 269° |
| 2026-04-26 01:28 | 33.45662 | -112.80923 | 24754 ft | 376 kts | 280° |
| 2026-04-26 01:28 | 33.46606 | -112.83879 | 25260 ft | 383 kts | 287° |
| 2026-04-26 01:29 | 33.47673 | -112.86813 | 25770 ft | 385 kts | 287° |
| 2026-04-26 01:29 | 33.48725 | -112.89770 | 26247 ft | 387 kts | 286° |
| 2026-04-26 01:29 | 33.49771 | -112.92755 | 26745 ft | 389 kts | 285° |
| 2026-04-26 01:29 | 33.50811 | -112.95748 | 27235 ft | 391 kts | 285° |
| 2026-04-26 01:30 | 33.51859 | -112.98768 | 27697 ft | 393 kts | 285° |
| 2026-04-26 01:30 | 33.52911 | -113.01802 | 28168 ft | 395 kts | 285° |
| 2026-04-26 01:30 | 33.53971 | -113.04853 | 28623 ft | 398 kts | 285° |
| 2026-04-26 01:30 | 33.55038 | -113.07917 | 29022 ft | 398 kts | 285° |
| 2026-04-26 01:31 | 33.56109 | -113.10994 | 29411 ft | 401 kts | 285° |
| 2026-04-26 01:31 | 33.57191 | -113.14097 | 29825 ft | 404 kts | 285° |
| 2026-04-26 01:31 | 33.58277 | -113.17217 | 30194 ft | 406 kts | 284° |
| 2026-04-26 01:31 | 33.59367 | -113.20350 | 30572 ft | 408 kts | 284° |
| 2026-04-26 01:32 | 33.60459 | -113.23494 | 30952 ft | 409 kts | 284° |
| 2026-04-26 01:32 | 33.61554 | -113.26646 | 31413 ft | 408 kts | 284° |
| 2026-04-26 01:32 | 33.62640 | -113.29777 | 31994 ft | 404 kts | 284° |
| 2026-04-26 01:32 | 33.63715 | -113.32877 | 32574 ft | 401 kts | 283° |
| 2026-04-26 01:33 | 33.64783 | -113.35955 | 33149 ft | 397 kts | 283° |
| 2026-04-26 01:33 | 33.65838 | -113.39002 | 33725 ft | 394 kts | 283° |
| 2026-04-26 01:33 | 33.66884 | -113.42032 | 34233 ft | 392 kts | 283° |
| 2026-04-26 01:33 | 33.67920 | -113.45045 | 34704 ft | 389 kts | 283° |
| 2026-04-26 01:34 | 33.68952 | -113.48049 | 35158 ft | 388 kts | 282° |
| 2026-04-26 01:34 | 33.69976 | -113.51039 | 35576 ft | 387 kts | 282° |
| 2026-04-26 01:34 | 33.70998 | -113.54021 | 35978 ft | 386 kts | 282° |
| 2026-04-26 01:34 | 33.72022 | -113.57000 | 36371 ft | 385 kts | 282° |
| 2026-04-26 01:35 | 33.73046 | -113.59975 | 36753 ft | 384 kts | 282° |
| 2026-04-26 01:35 | 33.74061 | -113.62936 | 37122 ft | 383 kts | 282° |
| 2026-04-26 01:35 | 33.75071 | -113.65895 | 37490 ft | 382 kts | 282° |
| 2026-04-26 01:35 | 33.76080 | -113.68849 | 37792 ft | 383 kts | 282° |
| 2026-04-26 01:36 | 33.78097 | -113.74770 | 37831 ft | 382 kts | 282° |
| 2026-04-26 01:37 | 33.81100 | -113.83593 | 37799 ft | 382 kts | 282° |
| 2026-04-26 01:37 | 33.83123 | -113.89519 | 37771 ft | 382 kts | 282° |
| 2026-04-26 01:38 | 33.85130 | -113.95439 | 37768 ft | 382 kts | 282° |
| 2026-04-26 01:38 | 33.87135 | -114.01371 | 37766 ft | 383 kts | 282° |
| 2026-04-26 01:39 | 33.89136 | -114.07283 | 37759 ft | 384 kts | 282° |
| 2026-04-26 01:39 | 33.90859 | -114.13300 | 37757 ft | 373 kts | 273° |
| 2026-04-26 01:40 | 33.91887 | -114.19431 | 37753 ft | 374 kts | 273° |
| 2026-04-26 01:40 | 33.92931 | -114.25571 | 37750 ft | 375 kts | 273° |
| 2026-04-26 01:41 | 33.93981 | -114.31728 | 37749 ft | 375 kts | 273° |
| 2026-04-26 01:41 | 33.94853 | -114.36893 | 37751 ft | 376 kts | 273° |
| 2026-04-26 01:42 | 33.95888 | -114.43063 | 37754 ft | 376 kts | 273° |
| 2026-04-26 01:42 | 33.96927 | -114.49250 | 37753 ft | 377 kts | 273° |
| 2026-04-26 01:43 | 33.97963 | -114.55436 | 37761 ft | 377 kts | 273° |
| 2026-04-26 01:43 | 33.98990 | -114.61594 | 37760 ft | 377 kts | 273° |
| 2026-04-26 01:44 | 34.00019 | -114.67800 | 37765 ft | 378 kts | 273° |
| 2026-04-26 01:44 | 34.01057 | -114.74051 | 37767 ft | 378 kts | 273° |
| 2026-04-26 01:45 | 34.02087 | -114.80270 | 37772 ft | 378 kts | 273° |
| 2026-04-26 01:45 | 34.03101 | -114.86459 | 37772 ft | 379 kts | 273° |
| 2026-04-26 01:46 | 34.04120 | -114.92691 | 37774 ft | 379 kts | 273° |
| 2026-04-26 01:46 | 34.05136 | -114.98940 | 37775 ft | 380 kts | 273° |
| 2026-04-26 01:47 | 34.06156 | -115.05186 | 37769 ft | 380 kts | 273° |
| 2026-04-26 01:47 | 34.07172 | -115.11440 | 37767 ft | 380 kts | 273° |
| 2026-04-26 01:48 | 34.08191 | -115.17716 | 37762 ft | 381 kts | 273° |
| 2026-04-26 01:48 | 34.09214 | -115.23992 | 37763 ft | 381 kts | 273° |
| 2026-04-26 01:49 | 34.10227 | -115.30278 | 37764 ft | 382 kts | 273° |
| 2026-04-26 01:49 | 34.11240 | -115.36579 | 37764 ft | 382 kts | 273° |
| 2026-04-26 01:50 | 34.12245 | -115.42881 | 37755 ft | 383 kts | 273° |
| 2026-04-26 01:50 | 34.13251 | -115.49192 | 37758 ft | 383 kts | 273° |
| 2026-04-26 01:51 | 34.14260 | -115.55527 | 37763 ft | 384 kts | 273° |
| 2026-04-26 01:51 | 34.15266 | -115.61866 | 37759 ft | 385 kts | 273° |
| 2026-04-26 01:52 | 34.16176 | -115.68226 | 37763 ft | 380 kts | 267° |
| 2026-04-26 01:52 | 34.15843 | -115.74483 | 37770 ft | 372 kts | 258° |
| 2026-04-26 01:53 | 34.15247 | -115.80665 | 37788 ft | 373 kts | 258° |
| 2026-04-26 01:53 | 34.14655 | -115.86890 | 37809 ft | 373 kts | 258° |
| 2026-04-26 01:54 | 34.14052 | -115.93115 | 37831 ft | 373 kts | 258° |
| 2026-04-26 01:54 | 34.13437 | -115.99354 | 37820 ft | 374 kts | 258° |
| 2026-04-26 01:54 | 34.13127 | -116.02489 | 37375 ft | 375 kts | 258° |
| 2026-04-26 01:55 | 34.12822 | -116.05608 | 37118 ft | 374 kts | 258° |
| 2026-04-26 01:55 | 34.12518 | -116.08728 | 36860 ft | 374 kts | 258° |
| 2026-04-26 01:55 | 34.12214 | -116.11847 | 36598 ft | 374 kts | 258° |
| 2026-04-26 01:55 | 34.11908 | -116.14962 | 36367 ft | 374 kts | 258° |
| 2026-04-26 01:56 | 34.11593 | -116.18110 | 35577 ft | 380 kts | 257° |
| 2026-04-26 01:56 | 34.11272 | -116.21292 | 34655 ft | 384 kts | 257° |
| 2026-04-26 01:56 | 34.10952 | -116.24491 | 33745 ft | 384 kts | 257° |
| 2026-04-26 01:56 | 34.10634 | -116.27691 | 32667 ft | 386 kts | 257° |
| 2026-04-26 01:57 | 34.10309 | -116.30926 | 31629 ft | 391 kts | 257° |
| 2026-04-26 01:57 | 34.09972 | -116.34185 | 31136 ft | 392 kts | 257° |
| 2026-04-26 01:57 | 34.09622 | -116.37459 | 30637 ft | 395 kts | 257° |
| 2026-04-26 01:57 | 34.09267 | -116.40755 | 30118 ft | 397 kts | 257° |
| 2026-04-26 01:58 | 34.08909 | -116.44068 | 29563 ft | 400 kts | 257° |
| 2026-04-26 01:58 | 34.08547 | -116.47413 | 29048 ft | 403 kts | 257° |
| 2026-04-26 01:58 | 34.08189 | -116.50744 | 28529 ft | 396 kts | 257° |
| 2026-04-26 01:58 | 34.07841 | -116.53974 | 28040 ft | 391 kts | 257° |
| 2026-04-26 01:59 | 34.07497 | -116.57172 | 27696 ft | 377 kts | 257° |
| 2026-04-26 01:59 | 34.07172 | -116.60263 | 27424 ft | 368 kts | 258° |
| 2026-04-26 01:59 | 34.06877 | -116.63318 | 27175 ft | 365 kts | 258° |
| 2026-04-26 01:59 | 34.06600 | -116.66350 | 26859 ft | 363 kts | 258° |
| 2026-04-26 02:00 | 34.06328 | -116.69376 | 26460 ft | 361 kts | 258° |
| 2026-04-26 02:00 | 34.06057 | -116.72385 | 26065 ft | 360 kts | 258° |
| 2026-04-26 02:00 | 34.05786 | -116.75370 | 25667 ft | 357 kts | 258° |
| 2026-04-26 02:00 | 34.05511 | -116.78342 | 25277 ft | 355 kts | 259° |
| 2026-04-26 02:01 | 34.05418 | -116.79341 | 25143 ft | 355 kts | 258° |
| 2026-04-26 02:01 | 34.04958 | -116.84239 | 24518 ft | 352 kts | 259° |
| 2026-04-26 02:01 | 34.04681 | -116.87164 | 24128 ft | 350 kts | 258° |
| 2026-04-26 02:01 | 34.04394 | -116.90070 | 23731 ft | 348 kts | 258° |
| 2026-04-26 02:02 | 34.04054 | -116.92960 | 23211 ft | 347 kts | 257° |
| 2026-04-26 02:02 | 34.03675 | -116.95821 | 22729 ft | 344 kts | 256° |
| 2026-04-26 02:02 | 34.03284 | -116.98658 | 22269 ft | 341 kts | 256° |
| 2026-04-26 02:02 | 34.02896 | -117.01469 | 21812 ft | 339 kts | 256° |
| 2026-04-26 02:03 | 34.02520 | -117.04262 | 21359 ft | 336 kts | 257° |
| 2026-04-26 02:03 | 34.02173 | -117.07043 | 20903 ft | 334 kts | 257° |
| 2026-04-26 02:03 | 34.01847 | -117.09811 | 20454 ft | 332 kts | 258° |
| 2026-04-26 02:03 | 34.01529 | -117.12557 | 20004 ft | 330 kts | 258° |
| 2026-04-26 02:04 | 34.01212 | -117.15291 | 19557 ft | 328 kts | 258° |
| 2026-04-26 02:04 | 34.00893 | -117.18013 | 19110 ft | 327 kts | 258° |
| 2026-04-26 02:04 | 34.00789 | -117.18893 | 18966 ft | 326 kts | 258° |
| 2026-04-26 02:04 | 34.00559 | -117.20940 | 18728 ft | 326 kts | 258° |
| 2026-04-26 02:05 | 34.00245 | -117.23656 | 18178 ft | 327 kts | 258° |
| 2026-04-26 02:05 | 33.99920 | -117.26353 | 17721 ft | 324 kts | 258° |
| 2026-04-26 02:05 | 33.99594 | -117.29026 | 17339 ft | 319 kts | 258° |
| 2026-04-26 02:05 | 33.99278 | -117.31639 | 17044 ft | 312 kts | 258° |
| 2026-04-26 02:06 | 33.98971 | -117.34216 | 16590 ft | 309 kts | 259° |
| 2026-04-26 02:06 | 33.98673 | -117.36740 | 16032 ft | 308 kts | 259° |
| 2026-04-26 02:06 | 33.98368 | -117.39316 | 15575 ft | 306 kts | 259° |
| 2026-04-26 02:06 | 33.98071 | -117.41815 | 15164 ft | 304 kts | 259° |
| 2026-04-26 02:07 | 33.97773 | -117.44326 | 14748 ft | 302 kts | 259° |
| 2026-04-26 02:07 | 33.97477 | -117.46821 | 14338 ft | 300 kts | 260° |
| 2026-04-26 02:07 | 33.97401 | -117.49337 | 13921 ft | 302 kts | 272° |
| 2026-04-26 02:07 | 33.97779 | -117.51833 | 13422 ft | 304 kts | 279° |
| 2026-04-26 02:08 | 33.98241 | -117.54313 | 12957 ft | 303 kts | 278° |
| 2026-04-26 02:08 | 33.98681 | -117.56787 | 12492 ft | 301 kts | 278° |
| 2026-04-26 02:08 | 33.99109 | -117.59243 | 12029 ft | 299 kts | 278° |
| 2026-04-26 02:08 | 33.99533 | -117.61690 | 11571 ft | 298 kts | 278° |
| 2026-04-26 02:09 | 33.99956 | -117.64126 | 11113 ft | 297 kts | 278° |
| 2026-04-26 02:09 | 34.00381 | -117.66557 | 10657 ft | 296 kts | 278° |
| 2026-04-26 02:09 | 34.00575 | -117.69005 | 10247 ft | 291 kts | 266° |
| 2026-04-26 02:09 | 34.00375 | -117.71366 | 10123 ft | 277 kts | 261° |
| 2026-04-26 02:10 | 34.00152 | -117.73638 | 9891 ft | 270 kts | 261° |
| 2026-04-26 02:10 | 33.99942 | -117.75859 | 9753 ft | 267 kts | 261° |
| 2026-04-26 02:10 | 33.99731 | -117.78054 | 9510 ft | 261 kts | 261° |
| 2026-04-26 02:10 | 33.99520 | -117.80217 | 9158 ft | 258 kts | 261° |
| 2026-04-26 02:11 | 33.99311 | -117.82356 | 8833 ft | 255 kts | 262° |
| 2026-04-26 02:11 | 33.99106 | -117.84466 | 8511 ft | 253 kts | 262° |
| 2026-04-26 02:11 | 33.98904 | -117.86551 | 8184 ft | 247 kts | 262° |
| 2026-04-26 02:11 | 33.98709 | -117.88578 | 7885 ft | 239 kts | 262° |
| 2026-04-26 02:12 | 33.98521 | -117.90544 | 7584 ft | 234 kts | 262° |
| 2026-04-26 02:12 | 33.98334 | -117.92477 | 7290 ft | 231 kts | 262° |
| 2026-04-26 02:12 | 33.98145 | -117.94398 | 6975 ft | 230 kts | 262° |
| 2026-04-26 02:12 | 33.97944 | -117.96287 | 6705 ft | 225 kts | 262° |
| 2026-04-26 02:13 | 33.97757 | -117.98135 | 6431 ft | 219 kts | 262° |
| 2026-04-26 02:13 | 33.97578 | -117.99939 | 6147 ft | 215 kts | 263° |
| 2026-04-26 02:13 | 33.97404 | -118.01709 | 5862 ft | 211 kts | 262° |
| 2026-04-26 02:13 | 33.97232 | -118.03450 | 5637 ft | 206 kts | 262° |
| 2026-04-26 02:14 | 33.97067 | -118.05110 | 5517 ft | 198 kts | 262° |
| 2026-04-26 02:14 | 33.96906 | -118.06740 | 5294 ft | 195 kts | 262° |
| 2026-04-26 02:14 | 33.96745 | -118.08358 | 5038 ft | 194 kts | 262° |
| 2026-04-26 02:14 | 33.96587 | -118.09950 | 4787 ft | 189 kts | 262° |
| 2026-04-26 02:15 | 33.96432 | -118.11501 | 4534 ft | 184 kts | 262° |
| 2026-04-26 02:15 | 33.96281 | -118.13020 | 4286 ft | 182 kts | 262° |
| 2026-04-26 02:15 | 33.96130 | -118.14526 | 4038 ft | 180 kts | 262° |
| 2026-04-26 02:15 | 33.95981 | -118.16020 | 3797 ft | 179 kts | 262° |
| 2026-04-26 02:16 | 33.95832 | -118.17505 | 3562 ft | 179 kts | 262° |
| 2026-04-26 02:16 | 33.95684 | -118.18987 | 3328 ft | 178 kts | 262° |
| 2026-04-26 02:16 | 33.95537 | -118.20456 | 3091 ft | 175 kts | 263° |
| 2026-04-26 02:16 | 33.95391 | -118.21902 | 2854 ft | 173 kts | 262° |
| 2026-04-26 02:17 | 33.95249 | -118.23321 | 2623 ft | 167 kts | 263° |
| 2026-04-26 02:17 | 33.95113 | -118.24671 | 2413 ft | 158 kts | 263° |
| 2026-04-26 02:17 | 33.95070 | -118.25095 | 2336 ft | 156 kts | 263° |
| 2026-04-26 02:17 | 33.94866 | -118.27118 | 2004 ft | 132 kts | 262° |
| 2026-04-26 02:18 | 33.94759 | -118.28178 | 1830 ft | 124 kts | 262° |
| 2026-04-26 02:18 | 33.94691 | -118.28851 | 1725 ft | 121 kts | 263° |
| 2026-04-26 02:18 | 33.94590 | -118.29855 | 1551 ft | 122 kts | 263° |
| 2026-04-26 02:18 | 33.94488 | -118.30855 | 1396 ft | 119 kts | 263° |
| 2026-04-26 02:19 | 33.94387 | -118.31850 | 1232 ft | 119 kts | 264° |
| 2026-04-26 02:19 | 33.94278 | -118.32842 | 1053 ft | 120 kts | 262° |
| 2026-04-26 02:19 | 33.94134 | -118.34156 | 785 ft | 119 kts | 262° |
| 2026-04-26 02:19 | 33.94082 | -118.34827 | 666 ft | 118 kts | 264° |
| 2026-04-26 02:20 | 33.93979 | -118.35818 | 510 ft | 120 kts | 263° |
| 2026-04-26 02:20 | 33.93884 | -118.36816 | 390 ft | 120 kts | 262° |
| 2026-04-26 02:20 | 33.93783 | -118.37805 | 224 ft | 118 kts | 263° |
| 2026-04-26 02:20 | 33.93683 | -118.38776 | 136 ft | 113 kts | 264° |
| 2026-04-26 02:21 | 33.93604 | -118.39571 | 110 ft | 73 kts | 262° |
| 2026-04-26 02:21 | 33.93557 | -118.40027 | 113 ft | 35 kts | 266° |
| 2026-04-26 02:21 | 33.93599 | -118.40279 | 110 ft | 25 kts | 290° |
| 2026-04-26 02:21 | 33.93624 | -118.40420 | 107 ft | 13 kts | 269° |
| 2026-04-26 02:22 | 33.93618 | -118.40529 | 106 ft | 10 kts | 264° |
| 2026-04-26 02:22 | 33.93609 | -118.40624 | 104 ft | 13 kts | 263° |
| 2026-04-26 02:22 | 33.93597 | -118.40737 | 106 ft | 15 kts | 263° |
| 2026-04-26 02:22 | 33.93606 | -118.40841 | 106 ft | 0 kts | 294° |
| 2026-04-26 02:24 | 33.93609 | -118.40849 | 106 ft | 3 kts | 294° |
| 2026-04-26 02:24 | 33.93630 | -118.40882 | 107 ft | 7 kts | 324° |
| 2026-04-26 02:24 | 33.93689 | -118.40899 | 108 ft | 12 kts | 353° |
| 2026-04-26 02:25 | 33.93771 | -118.40911 | 103 ft | 3 kts | 352° |
| 2026-04-26 02:25 | 33.93789 | -118.40914 | 101 ft | 6 kts | 352° |
| 2026-04-26 02:25 | 33.93855 | -118.40923 | 99 ft | 11 kts | 360° |
| 2026-04-26 02:25 | 33.93873 | -118.40857 | 97 ft | 10 kts | 83° |
| 2026-04-26 02:26 | 33.93924 | -118.40810 | 98 ft | 12 kts | 354° |
| 2026-04-26 02:26 | 33.94007 | -118.40824 | 96 ft | 11 kts | 356° |
| 2026-04-26 02:26 | 33.94014 | -118.40786 | 96 ft | 7 kts | 120° |
| 2026-04-26 02:26 | 33.94016 | -118.40745 | 97 ft | 5 kts | 71° |
| 2026-04-26 02:27 | 33.94016 | -118.40744 | 97 ft | 0 kts | 72° |